Time;durP1;ratioP1;P1;durP2;ratioP2;P2;SDS_P1;SDS_P2;PMS_P1;PMS_P2;Temp;Humidity;BMP_temperature;BMP_pressure;BME280_temperature;BME280_humidity;BME280_pressure;Samples;Min_cycle;Max_cycle;Signal;HPM_P1;HPM_P2
2021/07/06 00:01:55;;;;;;;5.85;3.40;;;19.30;99.90;;;;;;5037398;28;20394;-72
2021/07/06 00:04:20;;;;;;;3.53;3.13;;;19.20;99.90;;;;;;5037662;28;20383;-71
2021/07/06 00:06:46;;;;;;;4.77;3.10;;;19.10;99.90;;;;;;5037033;28;20402;-72
2021/07/06 00:12:33;;;;;;;5.63;3.20;;;19.10;99.90;;;;;;5037780;28;20370;-72
2021/07/06 00:14:59;;;;;;;3.43;2.87;;;19.20;99.90;;;;;;5035249;28;20441;-72
2021/07/06 00:17:25;;;;;;;4.00;3.60;;;19.20;99.90;;;;;;5034270;28;20461;-72
2021/07/06 00:19:51;;;;;;;4.15;3.42;;;19.10;99.90;;;;;;5034696;28;20895;-72
2021/07/06 00:22:17;;;;;;;4.53;3.03;;;19.10;99.90;;;;;;5034846;28;20383;-71
2021/07/06 00:24:43;;;;;;;3.78;3.13;;;19.10;99.90;;;;;;5034716;28;20388;-72
2021/07/06 00:27:08;;;;;;;4.30;3.17;;;19.10;99.90;;;;;;5033185;28;20750;-72
2021/07/06 00:29:34;;;;;;;5.03;3.00;;;19.10;99.90;;;;;;5034449;28;20387;-72
2021/07/06 00:32:00;;;;;;;3.87;3.00;;;19.10;99.90;;;;;;5034563;28;20395;-72
2021/07/06 00:34:26;;;;;;;4.85;3.05;;;19.20;99.90;;;;;;5035019;28;20386;-72
2021/07/06 00:36:51;;;;;;;4.00;2.92;;;19.10;99.90;;;;;;5036091;28;20989;-72
2021/07/06 00:39:17;;;;;;;4.00;2.90;;;19.10;99.90;;;;;;5038187;28;20387;-72
2021/07/06 00:41:44;;;;;;;6.50;3.20;;;19.20;99.90;;;;;;5036342;28;20395;-72
2021/07/06 00:44:17;;;;;;;3.83;2.97;;;19.20;99.90;;;;;;5036010;28;20446;-72
2021/07/06 00:46:43;;;;;;;3.83;2.72;;;19.20;99.90;;;;;;5036288;28;20420;-72
2021/07/06 00:49:09;;;;;;;5.10;2.95;;;19.20;99.90;;;;;;5031977;28;20758;-72
2021/07/06 00:51:35;;;;;;;4.70;2.67;;;19.30;99.90;;;;;;5031424;28;20406;-72
2021/07/06 00:54:01;;;;;;;3.00;2.80;;;19.30;99.90;;;;;;5031467;28;20383;-71
2021/07/06 00:56:27;;;;;;;4.80;2.70;;;19.30;99.90;;;;;;5031749;28;20797;-70
2021/07/06 00:58:52;;;;;;;5.50;3.00;;;19.30;99.90;;;;;;5032063;28;20684;-72
2021/07/06 01:01:18;;;;;;;4.00;2.80;;;19.40;99.90;;;;;;5031938;28;20398;-70
2021/07/06 01:03:44;;;;;;;4.05;3.00;;;19.40;99.90;;;;;;5032406;28;20386;-73
2021/07/06 01:06:11;;;;;;;7.53;3.15;;;19.40;99.90;;;;;;5032192;28;20419;-72
2021/07/06 01:08:37;;;;;;;5.45;3.15;;;19.40;99.90;;;;;;5031573;28;20466;-71
2021/07/06 01:11:03;;;;;;;6.20;3.00;;;19.40;99.90;;;;;;5031538;28;20474;-72
2021/07/06 01:13:29;;;;;;;2.70;2.50;;;19.30;99.90;;;;;;5031664;28;20752;-72
2021/07/06 01:15:55;;;;;;;4.97;2.80;;;19.30;99.90;;;;;;5031570;28;20458;-72
2021/07/06 01:18:21;;;;;;;5.82;2.80;;;19.30;99.90;;;;;;5031304;28;20494;-72
2021/07/06 01:20:48;;;;;;;5.93;3.30;;;19.20;99.90;;;;;;5013686;28;20466;-71
2021/07/06 01:23:15;;;;;;;2.90;2.70;;;19.20;99.90;;;;;;5031066;28;20379;-71
2021/07/06 01:25:43;;;;;;;4.38;3.00;;;19.20;99.90;;;;;;5031107;28;20387;-71
2021/07/06 01:28:09;;;;;;;3.05;2.75;;;19.10;99.90;;;;;;5030914;28;20386;-71
2021/07/06 01:30:36;;;;;;;5.25;2.70;;;19.10;99.90;;;;;;5030973;28;20765;-71
2021/07/06 01:33:03;;;;;;;3.15;2.80;;;19.00;99.90;;;;;;5030770;28;20407;-72
2021/07/06 01:35:29;;;;;;;8.30;2.93;;;19.00;99.90;;;;;;5030956;28;20417;-71
2021/07/06 01:37:57;;;;;;;4.50;2.83;;;19.00;99.90;;;;;;5030864;28;20410;-71
2021/07/06 01:40:24;;;;;;;3.40;2.70;;;19.00;99.90;;;;;;5030851;28;20415;-71
2021/07/06 01:42:50;;;;;;;4.80;2.92;;;19.00;99.90;;;;;;5030729;28;20391;-71
2021/07/06 01:45:18;;;;;;;3.20;2.90;;;19.00;99.90;;;;;;5030696;28;20436;-71
2021/07/06 01:47:46;;;;;;;3.15;2.83;;;19.00;99.90;;;;;;5031023;28;20394;-71
2021/07/06 01:50:19;;;;;;;2.35;2.15;;;19.00;99.90;;;;;;5013239;28;20434;-71
2021/07/06 01:52:47;;;;;;;5.70;2.40;;;19.00;99.30;;;;;;5030535;28;20760;-71
2021/07/06 01:55:15;;;;;;;2.40;2.20;;;19.10;97.50;;;;;;5030697;28;20453;-71
2021/07/06 01:57:43;;;;;;;5.55;2.53;;;19.20;94.30;;;;;;5030904;28;20398;-71
2021/07/06 02:00:11;;;;;;;3.25;2.50;;;19.20;93.80;;;;;;5031099;28;20387;-71
2021/07/06 02:02:37;;;;;;;2.88;2.20;;;19.20;93.50;;;;;;5017301;28;20391;-71
2021/07/06 02:05:14;;;;;;;4.20;2.30;;;19.20;92.10;;;;;;5034775;28;20409;-71
2021/07/06 02:07:40;;;;;;;3.70;2.40;;;19.10;92.30;;;;;;5035045;28;20386;-71
2021/07/06 02:10:07;;;;;;;3.50;2.70;;;19.00;92.60;;;;;;5034787;28;20438;-71
2021/07/06 02:12:33;;;;;;;4.50;2.10;;;19.00;92.50;;;;;;5034619;28;20400;-69
2021/07/06 02:15:00;;;;;;;3.10;2.05;;;19.00;92.50;;;;;;5035426;28;20390;-70
2021/07/06 02:17:26;;;;;;;5.00;2.10;;;19.00;92.00;;;;;;5036779;28;20426;-71
2021/07/06 02:19:52;;;;;;;2.80;2.10;;;18.90;92.50;;;;;;5035222;28;20383;-70
2021/07/06 02:22:17;;;;;;;2.80;1.90;;;18.90;93.00;;;;;;5034183;28;20482;-70
2021/07/06 02:24:44;;;;;;;8.20;2.00;;;18.90;92.90;;;;;;5034310;28;20440;-71
2021/07/06 02:27:10;;;;;;;2.58;2.20;;;18.80;92.90;;;;;;5034256;28;20406;-71
2021/07/06 02:29:36;;;;;;;3.47;1.80;;;18.90;92.20;;;;;;5016410;28;21043;-70
2021/07/06 02:32:01;;;;;;;2.55;1.90;;;19.00;91.20;;;;;;5033955;28;20482;-70
2021/07/06 02:34:29;;;;;;;2.92;2.20;;;18.90;90.80;;;;;;5033145;28;20874;-71
2021/07/06 02:36:54;;;;;;;4.40;2.30;;;18.90;90.70;;;;;;5034182;28;20494;-70
2021/07/06 02:39:20;;;;;;;2.08;1.88;;;19.00;89.80;;;;;;5016175;28;20379;-70
2021/07/06 02:41:45;;;;;;;3.03;1.70;;;19.00;89.30;;;;;;5034258;28;20423;-70
2021/07/06 02:44:11;;;;;;;2.13;1.87;;;19.00;88.60;;;;;;5033792;28;20417;-71
2021/07/06 02:46:36;;;;;;;2.10;1.90;;;19.00;88.20;;;;;;5034132;28;20383;-71
2021/07/06 02:49:02;;;;;;;4.10;1.83;;;19.10;87.70;;;;;;5033877;28;21026;-71
2021/07/06 02:51:28;;;;;;;10.97;2.00;;;19.10;87.20;;;;;;5033718;28;20815;-70
2021/07/06 02:53:53;;;;;;;2.78;2.20;;;19.10;86.50;;;;;;5033688;28;20930;-70
2021/07/06 02:56:19;;;;;;;1.90;1.80;;;19.10;86.50;;;;;;5034476;28;20745;-70
2021/07/06 02:58:45;;;;;;;4.80;2.00;;;19.00;86.90;;;;;;5035328;28;20379;-70
2021/07/06 03:01:10;;;;;;;2.40;2.00;;;19.00;86.60;;;;;;5035689;28;20451;-71
2021/07/06 03:03:36;;;;;;;4.70;1.80;;;19.10;86.70;;;;;;5036736;28;20393;-71
2021/07/06 03:06:01;;;;;;;3.60;2.30;;;19.00;86.20;;;;;;5035676;28;20876;-71
2021/07/06 03:08:30;;;;;;;5.40;2.23;;;19.20;84.70;;;;;;5036808;28;20747;-71
2021/07/06 03:10:56;;;;;;;5.70;2.20;;;19.20;83.90;;;;;;5036767;28;20379;-71
2021/07/06 03:13:22;;;;;;;2.10;2.00;;;19.10;85.60;;;;;;5035688;28;20394;-71
2021/07/06 03:15:47;;;;;;;4.93;2.10;;;19.10;84.60;;;;;;5036540;28;20387;-70
2021/07/06 03:18:13;;;;;;;4.70;1.90;;;19.10;84.40;;;;;;5035942;28;20410;-71
2021/07/06 03:20:39;;;;;;;4.03;1.80;;;19.20;84.10;;;;;;5035861;28;20380;-72
2021/07/06 03:23:05;;;;;;;3.50;1.90;;;19.10;84.40;;;;;;5035438;28;20383;-71
2021/07/06 03:25:33;;;;;;;4.05;2.15;;;19.10;84.50;;;;;;5035355;28;20408;-71
2021/07/06 03:28:00;;;;;;;4.15;1.80;;;19.10;84.20;;;;;;5036548;28;20387;-71
2021/07/06 03:30:31;;;;;;;3.90;2.20;;;19.10;83.30;;;;;;5035769;28;20394;-71
2021/07/06 03:32:59;;;;;;;2.75;2.28;;;19.10;83.70;;;;;;5063957;23;20531;-76
2021/07/06 03:35:26;;;;;;;5.47;2.20;;;19.20;82.20;;;;;;5053689;28;20722;-76
2021/07/06 03:37:52;;;;;;;9.40;2.05;;;19.10;81.80;;;;;;5053275;28;20890;-77
2021/07/06 03:40:18;;;;;;;3.80;1.83;;;19.20;81.70;;;;;;5053903;28;20388;-76
2021/07/06 03:42:44;;;;;;;6.20;2.35;;;19.10;82.30;;;;;;5068219;28;20385;-76
2021/07/06 03:45:11;;;;;;;3.50;2.05;;;19.20;81.20;;;;;;5068599;28;20396;-76
2021/07/06 03:47:37;;;;;;;6.97;2.00;;;19.20;80.20;;;;;;5052726;28;20447;-76
2021/07/06 03:50:05;;;;;;;5.10;2.00;;;19.30;79.80;;;;;;5051259;28;20398;-75
2021/07/06 03:52:31;;;;;;;3.10;2.20;;;19.30;79.60;;;;;;5052355;28;20480;-76
2021/07/06 03:54:56;;;;;;;3.60;2.20;;;19.20;79.90;;;;;;5052385;28;20920;-77
2021/07/06 03:57:31;;;;;;;4.37;1.80;;;19.30;79.30;;;;;;5052283;28;20459;-76
2021/07/06 03:59:59;;;;;;;3.45;2.30;;;19.40;78.40;;;;;;5052349;28;20381;-76
2021/07/06 04:02:24;;;;;;;6.90;2.10;;;19.40;77.60;;;;;;5051905;28;20908;-76
2021/07/06 04:04:50;;;;;;;3.20;2.10;;;19.40;76.60;;;;;;5052051;28;20394;-76
2021/07/06 04:07:16;;;;;;;2.70;1.95;;;19.50;77.10;;;;;;5052073;28;20393;-76
2021/07/06 04:09:42;;;;;;;4.60;1.93;;;19.50;76.60;;;;;;5052033;28;20404;-76
2021/07/06 04:12:07;;;;;;;2.60;1.60;;;19.60;75.90;;;;;;5052280;28;20393;-76
2021/07/06 04:14:33;;;;;;;2.58;2.00;;;19.60;74.00;;;;;;5051844;28;20433;-76
2021/07/06 04:16:58;;;;;;;4.37;2.20;;;19.70;73.50;;;;;;5052276;28;20402;-76
2021/07/06 04:19:24;;;;;;;4.20;1.50;;;19.70;73.70;;;;;;5052354;28;20447;-76
2021/07/06 04:21:49;;;;;;;5.50;2.08;;;19.80;72.30;;;;;;5054245;28;20432;-77
2021/07/06 04:24:15;;;;;;;9.07;2.03;;;19.90;71.50;;;;;;5052108;28;20389;-76
2021/07/06 04:26:41;;;;;;;2.30;1.80;;;19.90;70.90;;;;;;5053713;28;20388;-77
2021/07/06 04:29:06;;;;;;;1.97;1.80;;;19.90;70.80;;;;;;5067788;28;20477;-76
2021/07/06 04:31:32;;;;;;;4.03;1.80;;;20.00;70.50;;;;;;5051910;28;20403;-76
2021/07/06 04:33:57;;;;;;;2.50;1.70;;;20.00;70.80;;;;;;5052047;28;20476;-76
2021/07/06 04:36:23;;;;;;;2.50;2.00;;;20.00;70.50;;;;;;5052059;28;20388;-76
2021/07/06 04:38:48;;;;;;;5.43;2.10;;;20.00;70.80;;;;;;5052186;28;20389;-76
2021/07/06 04:41:14;;;;;;;7.43;1.90;;;20.00;69.90;;;;;;5051485;28;20461;-76
2021/07/06 04:43:40;;;;;;;3.43;2.10;;;19.90;71.20;;;;;;5051241;28;20473;-76
2021/07/06 04:46:05;;;;;;;3.07;1.60;;;19.90;71.90;;;;;;5066700;28;20546;-76
2021/07/06 04:48:31;;;;;;;10.10;2.50;;;19.90;72.90;;;;;;5051645;28;20396;-76
2021/07/06 04:51:03;;;;;;;3.70;1.90;;;19.90;74.40;;;;;;5051975;28;20386;-77
2021/07/06 04:53:29;;;;;;;6.30;2.00;;;19.90;76.00;;;;;;5051716;28;20746;-76
2021/07/06 04:55:55;;;;;;;4.65;2.03;;;19.90;76.90;;;;;;5067215;28;20400;-76
2021/07/06 04:58:20;;;;;;;3.50;2.27;;;19.80;78.50;;;;;;5051836;28;20497;-76
2021/07/06 05:00:46;;;;;;;5.53;2.80;;;19.90;80.30;;;;;;5051664;28;20385;-77
2021/07/06 05:03:12;;;;;;;11.73;7.90;;;19.80;80.80;;;;;;5051855;28;20392;-77
2021/07/06 05:05:39;;;;;;;2.60;2.40;;;19.80;81.10;;;;;;5051758;28;20838;-77
2021/07/06 05:08:05;;;;;;;3.90;2.83;;;19.70;84.10;;;;;;5066917;28;20393;-76
2021/07/06 05:10:34;;;;;;;4.57;3.10;;;19.60;85.30;;;;;;5051664;28;20568;-76
2021/07/06 05:13:00;;;;;;;3.63;2.30;;;19.60;87.40;;;;;;5051327;28;20456;-76
2021/07/06 05:15:25;;;;;;;3.80;2.60;;;19.60;87.40;;;;;;5051211;28;20916;-76
2021/07/06 05:17:51;;;;;;;7.03;2.92;;;19.50;87.30;;;;;;5066597;28;20467;-76
2021/07/06 05:20:16;;;;;;;5.25;2.45;;;19.60;87.10;;;;;;5067070;28;20409;-75
2021/07/06 05:22:43;;;;;;;8.13;3.50;;;19.60;87.60;;;;;;5050598;28;20381;-76
2021/07/06 05:25:09;;;;;;;6.13;3.35;;;19.60;87.40;;;;;;5049175;28;20381;-76
2021/07/06 05:27:35;;;;;;;7.20;3.20;;;19.60;89.20;;;;;;5050365;28;20856;-76
2021/07/06 05:30:01;;;;;;;4.25;2.50;;;19.60;90.30;;;;;;5050570;28;20385;-76
2021/07/06 05:32:26;;;;;;;9.75;3.25;;;19.50;94.00;;;;;;5050490;28;20425;-75
2021/07/06 05:35:12;;;;;;;4.47;2.85;;;19.40;94.30;;;;;;5067336;28;20395;-76
2021/07/06 05:37:38;;;;;;;8.80;3.30;;;19.40;95.40;;;;;;5049044;28;20501;-76
2021/07/06 05:40:06;;;;;;;7.72;3.25;;;19.40;96.80;;;;;;5050749;28;20440;-76
2021/07/06 05:42:34;;;;;;;6.63;3.00;;;19.30;98.70;;;;;;5050085;28;20782;-76
2021/07/06 05:45:00;;;;;;;5.20;2.75;;;19.30;98.30;;;;;;5050360;28;20431;-76
2021/07/06 05:47:26;;;;;;;6.70;3.20;;;19.30;99.60;;;;;;5050413;28;20798;-76
2021/07/06 05:49:51;;;;;;;8.73;3.25;;;19.30;98.90;;;;;;5049399;28;20511;-77
2021/07/06 05:52:17;;;;;;;5.53;2.80;;;19.30;98.30;;;;;;5050283;28;20385;-77
2021/07/06 05:54:42;;;;;;;8.00;2.83;;;19.30;98.80;;;;;;5050381;28;20386;-76
2021/07/06 05:57:08;;;;;;;6.68;2.83;;;19.30;98.70;;;;;;5050252;28;20484;-76
2021/07/06 05:59:34;;;;;;;6.50;3.00;;;19.20;99.90;;;;;;5050294;28;20719;-76
2021/07/06 06:01:59;;;;;;;4.20;3.00;;;19.10;99.90;;;;;;5065692;28;20438;-76
2021/07/06 06:04:26;;;;;;;6.53;3.28;;;19.10;99.90;;;;;;5056777;28;20524;-75
2021/07/06 06:06:52;;;;;;;5.03;3.00;;;19.00;99.90;;;;;;5060377;28;20472;-76
2021/07/06 06:09:18;;;;;;;10.02;3.45;;;19.00;99.90;;;;;;5056732;28;20413;-76
2021/07/06 06:11:43;;;;;;;5.53;3.10;;;19.00;99.90;;;;;;5055280;28;20385;-77
2021/07/06 06:14:09;;;;;;;6.13;3.53;;;18.90;99.90;;;;;;5066219;28;20389;-77
2021/07/06 06:16:35;;;;;;;5.83;3.50;;;18.90;99.90;;;;;;5068610;28;20416;-76
2021/07/06 06:19:00;;;;;;;5.38;3.25;;;18.90;99.90;;;;;;5053178;28;20434;-76
2021/07/06 06:21:27;;;;;;;5.93;3.25;;;18.90;99.90;;;;;;5051598;28;20458;-76
2021/07/06 06:23:54;;;;;;;5.73;3.10;;;18.90;99.90;;;;;;5055719;28;20385;-76
2021/07/06 06:26:19;;;;;;;8.65;3.65;;;18.80;99.90;;;;;;5056402;28;20404;-76
2021/07/06 06:28:45;;;;;;;7.13;3.43;;;18.90;99.90;;;;;;5055776;28;20381;-76
2021/07/06 06:31:11;;;;;;;4.68;3.30;;;18.90;99.90;;;;;;5052285;28;20385;-77
2021/07/06 06:33:37;;;;;;;8.25;3.10;;;18.90;99.90;;;;;;5051205;28;20843;-77
2021/07/06 06:36:02;;;;;;;8.10;3.30;;;19.00;99.90;;;;;;5051871;28;20381;-77
2021/07/06 06:38:28;;;;;;;6.30;3.45;;;19.00;99.90;;;;;;5050919;28;20921;-77
2021/07/06 06:40:54;;;;;;;11.20;4.07;;;19.00;99.90;;;;;;5050111;28;20381;-77
2021/07/06 06:43:19;;;;;;;7.20;3.60;;;19.00;99.90;;;;;;5065613;28;20886;-77
2021/07/06 06:45:46;;;;;;;8.15;3.60;;;19.00;99.90;;;;;;5051087;28;20428;-77
2021/07/06 06:48:12;;;;;;;4.53;3.30;;;19.00;99.90;;;;;;5052675;28;20386;-76
2021/07/06 06:50:38;;;;;;;5.50;3.10;;;19.00;99.90;;;;;;5053788;28;20385;-75
2021/07/06 06:53:03;;;;;;;5.45;3.22;;;19.00;99.90;;;;;;5053175;28;20394;-76
2021/07/06 06:55:29;;;;;;;6.75;3.10;;;19.00;99.90;;;;;;5053655;28;20393;-76
2021/07/06 06:57:55;;;;;;;11.17;3.20;;;19.00;99.90;;;;;;5053339;28;20412;-77
2021/07/06 07:00:21;;;;;;;3.10;2.70;;;19.00;99.90;;;;;;5053867;28;20405;-76
2021/07/06 07:02:49;;;;;;;5.65;2.83;;;19.00;99.90;;;;;;5052955;28;20389;-76
2021/07/06 07:05:15;;;;;;;6.90;2.80;;;19.10;99.90;;;;;;5053510;28;20501;-75
2021/07/06 07:07:41;;;;;;;2.93;2.70;;;19.20;99.90;;;;;;5053062;28;20906;-76
2021/07/06 07:10:07;;;;;;;5.57;2.60;;;19.30;99.90;;;;;;5068380;28;20755;-77
2021/07/06 07:12:35;;;;;;;5.88;2.65;;;19.40;99.90;;;;;;5053429;28;20382;-76
2021/07/06 07:15:02;;;;;;;6.45;2.83;;;19.50;99.90;;;;;;5068176;28;20864;-76
2021/07/06 07:17:27;;;;;;;4.22;2.50;;;19.50;99.90;;;;;;5068232;28;20496;-76
2021/07/06 07:19:53;;;;;;;4.20;2.70;;;19.60;98.80;;;;;;5053176;28;20438;-76
2021/07/06 07:22:19;;;;;;;3.17;2.33;;;19.60;98.80;;;;;;5070156;28;20431;-75
2021/07/06 07:24:44;;;;;;;3.30;1.90;;;19.70;95.40;;;;;;5055949;28;20460;-75
2021/07/06 07:27:10;;;;;;;5.03;2.88;;;19.70;96.30;;;;;;5055251;28;20377;-76
2021/07/06 07:29:35;;;;;;;5.00;2.70;;;19.80;97.20;;;;;;5052654;28;20680;-76
2021/07/06 07:32:02;;;;;;;9.07;3.00;;;19.90;96.30;;;;;;5053174;28;20393;-76
2021/07/06 07:34:28;;;;;;;3.00;2.80;;;19.90;97.40;;;;;;5053303;28;20897;-76
2021/07/06 07:36:53;;;;;;;3.80;2.80;;;20.00;94.50;;;;;;5053164;28;20398;-76
2021/07/06 07:39:19;;;;;;;7.33;3.10;;;19.90;95.50;;;;;;5052636;28;20401;-76
2021/07/06 07:41:44;;;;;;;2.88;2.60;;;20.00;93.20;;;;;;5051944;28;20413;-77
2021/07/06 07:44:11;;;;;;;3.37;2.20;;;20.00;94.60;;;;;;5052177;28;20474;-76
2021/07/06 07:46:37;;;;;;;3.08;2.60;;;20.00;94.30;;;;;;5052497;28;20388;-77
2021/07/06 07:49:03;;;;;;;4.00;3.00;;;20.00;94.80;;;;;;5052337;28;20397;-76
2021/07/06 07:51:28;;;;;;;3.45;2.78;;;20.10;93.90;;;;;;5052002;28;20477;-76
2021/07/06 07:53:54;;;;;;;3.85;2.50;;;20.20;92.60;;;;;;5067565;28;20377;-75
2021/07/06 07:56:20;;;;;;;5.20;2.70;;;20.20;92.00;;;;;;5052449;28;20431;-76
2021/07/06 07:58:45;;;;;;;4.03;2.78;;;20.20;92.40;;;;;;5052141;28;20727;-76
2021/07/06 08:01:11;;;;;;;3.25;2.60;;;20.10;93.60;;;;;;5067639;28;20386;-76
2021/07/06 08:03:36;;;;;;;6.33;3.20;;;20.10;94.70;;;;;;5067816;28;20393;-77
2021/07/06 08:06:02;;;;;;;3.77;2.40;;;20.10;94.60;;;;;;5067395;28;20382;-77
2021/07/06 08:08:28;;;;;;;5.30;2.70;;;20.10;94.10;;;;;;5052758;28;20385;-77
2021/07/06 08:10:56;;;;;;;6.18;3.00;;;20.10;93.70;;;;;;5052034;28;20480;-75
2021/07/06 08:13:25;;;;;;;5.82;2.72;;;20.30;91.90;;;;;;5067838;28;20412;-78
2021/07/06 08:15:51;;;;;;;3.97;2.50;;;20.60;90.50;;;;;;5052232;28;20381;-76
2021/07/06 08:18:18;;;;;;;4.27;2.60;;;20.60;89.30;;;;;;5051932;28;20400;-77
2021/07/06 08:20:44;;;;;;;4.97;3.20;;;20.70;87.70;;;;;;5068426;28;20477;-75
2021/07/06 08:23:10;;;;;;;4.35;2.90;;;20.90;85.40;;;;;;5051488;28;20900;-76
2021/07/06 08:25:36;;;;;;;2.58;2.30;;;21.20;83.30;;;;;;5051500;28;20386;-77
2021/07/06 08:28:02;;;;;;;5.40;2.83;;;21.40;80.70;;;;;;5051956;28;20727;-76
2021/07/06 08:30:27;;;;;;;3.28;2.65;;;21.50;78.70;;;;;;5051936;28;20389;-76
2021/07/06 08:32:53;;;;;;;3.88;2.60;;;21.60;75.60;;;;;;5051589;28;20432;-77
2021/07/06 08:35:18;;;;;;;3.20;2.67;;;21.60;75.90;;;;;;5052401;28;20827;-77
2021/07/06 08:37:44;;;;;;;4.43;2.60;;;21.50;75.30;;;;;;5052916;28;20412;-77
2021/07/06 08:40:11;;;;;;;4.63;3.10;;;21.60;75.40;;;;;;5052867;28;20468;-77
2021/07/06 08:42:37;;;;;;;3.10;2.80;;;21.60;75.70;;;;;;5052845;28;20439;-77
2021/07/06 08:45:04;;;;;;;4.13;2.80;;;21.70;77.30;;;;;;5052505;28;20955;-76
2021/07/06 08:47:30;;;;;;;5.18;3.17;;;21.60;75.50;;;;;;5052059;28;20434;-76
2021/07/06 08:49:56;;;;;;;2.60;2.40;;;21.60;78.50;;;;;;5052529;28;20462;-78
2021/07/06 08:52:23;;;;;;;5.05;2.50;;;21.70;75.10;;;;;;5051436;28;20412;-76
2021/07/06 08:54:49;;;;;;;3.60;2.50;;;21.80;74.30;;;;;;5067804;28;20472;-77
2021/07/06 08:57:21;;;;;;;5.75;2.60;;;21.90;74.00;;;;;;5052517;28;20480;-77
2021/07/06 08:59:47;;;;;;;3.35;3.08;;;22.00;73.60;;;;;;5053041;28;20385;-77
2021/07/06 09:02:13;;;;;;;4.30;2.70;;;22.10;71.60;;;;;;5066803;28;20775;-76
2021/07/06 09:04:43;;;;;;;6.65;3.22;;;22.20;69.50;;;;;;5066444;28;20527;-77
2021/07/06 09:07:08;;;;;;;4.53;2.33;;;22.30;67.60;;;;;;5052215;28;20389;-77
2021/07/06 09:09:34;;;;;;;6.13;2.80;;;22.50;65.70;;;;;;5076164;28;20389;-76
2021/07/06 09:12:02;;;;;;;6.82;2.63;;;22.60;64.90;;;;;;5071982;28;20381;-77
2021/07/06 09:14:30;;;;;;;6.68;2.70;;;22.60;63.20;;;;;;5053849;28;20416;-77
2021/07/06 09:17:15;;;;;;;4.10;2.33;;;22.80;61.70;;;;;;5051244;28;20401;-77
2021/07/06 09:19:48;;;;;;;4.43;2.28;;;22.80;59.10;;;;;;5042328;28;20874;-78
2021/07/06 09:22:21;;;;;;;2.47;2.10;;;22.80;59.00;;;;;;5052247;28;20474;-77
2021/07/06 09:25:08;;;;;;;3.00;2.63;;;22.70;57.40;;;;;;5053407;28;20953;-77
2021/07/06 09:27:39;;;;;;;3.30;2.10;;;22.70;57.80;;;;;;5067192;28;20401;-76
2021/07/06 09:30:19;;;;;;;5.53;2.28;;;22.70;57.70;;;;;;5052258;28;20416;-77
2021/07/06 09:32:48;;;;;;;2.47;2.13;;;22.70;58.20;;;;;;5065670;22;20449;-78
2021/07/06 09:35:18;;;;;;;4.45;2.40;;;22.70;57.10;;;;;;5054085;28;20424;-78
2021/07/06 09:37:49;;;;;;;2.57;2.37;;;22.70;54.40;;;;;;5055806;28;20441;-79
2021/07/06 09:40:31;;;;;;;3.78;2.20;;;22.80;54.20;;;;;;5053654;28;20417;-77
2021/07/06 09:43:18;;;;;;;5.32;2.67;;;22.90;55.00;;;;;;5050718;28;20415;-78
2021/07/06 09:46:00;;;;;;;5.70;2.20;;;22.90;55.50;;;;;;5052182;28;20373;-78
2021/07/06 09:48:27;;;;;;;4.78;2.13;;;22.90;54.20;;;;;;5070075;28;20930;-79
2021/07/06 09:51:14;;;;;;;3.30;2.10;;;22.90;51.20;;;;;;5071467;28;20386;-78
2021/07/06 09:53:40;;;;;;;2.75;2.30;;;22.80;52.60;;;;;;5039165;28;20379;-78
2021/07/06 09:56:10;;;;;;;2.17;2.00;;;22.60;54.70;;;;;;5034666;28;20421;-78
2021/07/06 09:58:53;;;;;;;5.72;2.75;;;22.60;55.40;;;;;;5035847;28;20911;-78
2021/07/06 10:01:20;;;;;;;4.53;2.00;;;22.70;54.60;;;;;;5033969;28;20434;-78
2021/07/06 10:03:48;;;;;;;3.60;1.80;;;22.80;54.40;;;;;;5034029;28;20432;-78
2021/07/06 10:06:14;;;;;;;6.03;2.90;;;22.90;52.60;;;;;;5033739;28;20383;-78
2021/07/06 10:08:41;;;;;;;2.60;1.95;;;23.20;51.60;;;;;;5033781;28;20393;-77
2021/07/06 10:11:08;;;;;;;5.82;2.30;;;23.40;48.10;;;;;;5034236;28;20851;-78
2021/07/06 10:13:35;;;;;;;2.88;2.10;;;23.30;48.70;;;;;;5035206;28;20445;-77
2021/07/06 10:16:02;;;;;;;7.43;2.28;;;23.30;48.40;;;;;;5031268;28;20391;-77
2021/07/06 10:18:32;;;;;;;5.63;2.38;;;23.30;47.40;;;;;;5045500;28;20413;-78
2021/07/06 10:20:59;;;;;;;3.72;2.10;;;23.30;48.60;;;;;;5047764;28;20391;-78
2021/07/06 10:23:25;;;;;;;7.93;1.98;;;23.70;46.90;;;;;;5050700;28;20422;-78
2021/07/06 10:25:56;;;;;;;2.58;2.00;;;24.00;39.00;;;;;;5036173;28;20417;-77
2021/07/06 10:28:25;;;;;;;2.67;2.00;;;24.10;37.60;;;;;;5037697;28;20383;-77
2021/07/06 10:30:50;;;;;;;2.53;1.70;;;24.00;38.20;;;;;;5052813;28;20899;-79
2021/07/06 10:33:31;;;;;;;4.50;1.40;;;24.00;34.40;;;;;;5038029;28;20430;-78
2021/07/06 10:35:58;;;;;;;4.97;1.60;;;24.10;33.10;;;;;;5039025;28;20387;-78
2021/07/06 10:38:26;;;;;;;2.90;1.30;;;24.50;31.30;;;;;;5039193;28;20445;-78
2021/07/06 10:40:53;;;;;;;3.15;1.40;;;24.90;27.50;;;;;;5039282;28;20383;-77
2021/07/06 10:43:38;;;;;;;2.10;1.40;;;25.20;25.00;;;;;;5047130;28;20379;-76
2021/07/06 10:46:29;;;;;;;3.20;1.40;;;25.50;22.90;;;;;;5036913;28;20386;-79
2021/07/06 10:49:04;;;;;;;5.30;1.42;;;25.20;22.70;;;;;;5035200;28;20394;-79
2021/07/06 10:51:36;;;;;;;3.10;1.30;;;25.10;21.70;;;;;;5037053;28;20461;-78
2021/07/06 10:54:20;;;;;;;2.13;1.20;;;25.00;22.30;;;;;;5038641;28;20470;-78
2021/07/06 10:56:48;;;;;;;2.20;1.20;;;24.90;23.10;;;;;;5045431;28;20446;-77
2021/07/06 10:59:37;;;;;;;2.03;1.40;;;24.60;21.60;;;;;;5053560;28;20814;-77
2021/07/06 11:02:22;;;;;;;4.60;1.30;;;24.70;22.80;;;;;;5035294;28;20824;-77
2021/07/06 11:04:50;;;;;;;7.10;1.40;;;24.70;20.00;;;;;;5034656;28;20803;-77
2021/07/06 11:07:34;;;;;;;4.50;1.25;;;24.90;21.10;;;;;;5035301;28;20397;-78
2021/07/06 11:10:03;;;;;;;4.18;1.48;;;25.20;19.20;;;;;;5035869;28;20392;-78
2021/07/06 11:12:35;;;;;;;3.10;1.30;;;25.20;19.00;;;;;;5054492;28;20387;-78
2021/07/06 11:15:13;;;;;;;3.50;1.40;;;25.00;19.60;;;;;;5053325;28;20959;-77
2021/07/06 11:17:59;;;;;;;2.92;1.20;;;24.90;18.60;;;;;;5045328;28;20443;-77
2021/07/06 11:20:34;;;;;;;1.80;1.10;;;24.60;19.30;;;;;;5061428;28;20459;-76
2021/07/06 11:23:02;;;;;;;2.80;1.10;;;24.50;19.10;;;;;;5040339;28;20398;-77
2021/07/06 11:25:37;;;;;;;4.45;1.50;;;24.70;19.20;;;;;;5036672;28;20867;-77
2021/07/06 11:28:12;;;;;;;5.63;1.30;;;24.70;18.30;;;;;;5036379;28;20474;-77
2021/07/06 11:30:48;;;;;;;4.18;1.35;;;24.90;18.10;;;;;;5037173;28;20703;-78
2021/07/06 11:33:29;;;;;;;4.53;1.20;;;25.20;15.80;;;;;;5035410;28;20482;-77
2021/07/06 11:35:57;;;;;;;7.13;1.33;;;25.40;15.70;;;;;;5033836;28;20465;-79
2021/07/06 11:38:28;;;;;;;4.30;1.20;;;25.60;15.20;;;;;;5036496;28;20509;-78
2021/07/06 11:40:57;;;;;;;1.58;1.10;;;25.90;14.50;;;;;;5036750;28;20379;-78
2021/07/06 11:43:24;;;;;;;2.85;1.20;;;25.90;12.20;;;;;;5037439;28;20817;-78
2021/07/06 11:45:50;;;;;;;1.58;0.95;;;25.80;13.60;;;;;;5050699;28;20395;-78
2021/07/06 11:48:18;;;;;;;2.30;1.15;;;25.90;12.70;;;;;;5037302;28;20844;-79
2021/07/06 11:50:46;;;;;;;2.20;1.10;;;25.80;13.60;;;;;;5037002;28;20463;-78
2021/07/06 11:53:13;;;;;;;1.30;1.20;;;25.70;13.60;;;;;;5051775;28;20394;-79
2021/07/06 11:55:40;;;;;;;4.43;1.17;;;25.80;13.60;;;;;;5036811;28;20865;-79
2021/07/06 11:58:09;;;;;;;7.40;1.48;;;25.70;13.80;;;;;;5038357;28;20752;-77
2021/07/06 12:00:38;;;;;;;3.90;1.20;;;25.60;13.70;;;;;;5055183;28;20427;-78
2021/07/06 12:03:28;;;;;;;1.47;1.10;;;25.50;13.70;;;;;;5054464;28;20463;-78
2021/07/06 12:06:00;;;;;;;2.17;1.40;;;25.80;13.60;;;;;;5053362;28;20871;-78
2021/07/06 12:08:27;;;;;;;5.80;1.00;;;26.00;13.90;;;;;;5035447;28;20391;-77
2021/07/06 12:11:03;;;;;;;3.50;1.30;;;26.00;13.20;;;;;;5053380;28;20391;-78
2021/07/06 12:13:44;;;;;;;2.80;1.30;;;26.20;12.70;;;;;;5035259;28;20395;-78
2021/07/06 12:16:15;;;;;;;3.33;1.00;;;26.20;12.00;;;;;;5037156;28;20453;-80
2021/07/06 12:18:51;;;;;;;2.65;1.10;;;26.40;11.90;;;;;;5039952;28;20407;-78
2021/07/06 12:21:38;;;;;;;4.60;1.50;;;26.50;12.00;;;;;;5038806;28;20415;-77
2021/07/06 12:24:07;;;;;;;5.60;1.30;;;26.80;12.10;;;;;;5054626;28;20764;-78
2021/07/06 12:26:37;;;;;;;3.88;1.20;;;26.80;9.80;;;;;;5036690;28;20383;-80
2021/07/06 12:29:02;;;;;;;2.90;1.38;;;26.70;10.20;;;;;;5036426;28;20433;-78
2021/07/06 12:31:33;;;;;;;3.55;1.30;;;26.90;10.70;;;;;;5036789;28;20482;-77
2021/07/06 12:34:04;;;;;;;4.70;1.40;;;26.80;10.20;;;;;;5050411;28;20458;-78
2021/07/06 12:36:31;;;;;;;1.85;1.08;;;27.00;10.10;;;;;;5036138;28;20388;-78
2021/07/06 12:39:21;;;;;;;5.80;1.30;;;27.00;8.70;;;;;;5036207;28;20380;-77
2021/07/06 12:41:52;;;;;;;2.42;1.20;;;26.80;8.90;;;;;;5037223;28;20387;-78
2021/07/06 12:44:46;;;;;;;2.53;1.30;;;26.90;9.10;;;;;;5049304;28;20386;-78
2021/07/06 12:47:25;;;;;;;3.10;1.10;;;26.80;8.10;;;;;;5054252;28;20977;-79
2021/07/06 12:49:52;;;;;;;2.60;1.30;;;26.60;9.30;;;;;;5040572;28;20388;-78
2021/07/06 12:52:19;;;;;;;5.88;1.00;;;26.80;8.90;;;;;;5040203;28;20403;-80
2021/07/06 12:54:45;;;;;;;1.58;1.10;;;27.10;9.60;;;;;;5038948;28;20471;-77
2021/07/06 12:57:30;;;;;;;6.70;1.47;;;27.20;8.70;;;;;;5036377;28;20880;-78